createdAt,value
2018-11-22T00:01:21.194Z,39.83
2018-11-22T00:04:01.851Z,39.17
2018-11-22T00:06:42.330Z,41.93
2018-11-22T00:09:23.277Z,36.87
2018-11-22T00:12:03.676Z,35.57
2018-11-22T00:14:44.740Z,40.07
2018-11-22T00:17:25.725Z,39.03
2018-11-22T00:20:05.878Z,40.90
2018-11-22T00:22:46.190Z,38.03
2018-11-22T00:25:26.503Z,37.43
2018-11-22T00:28:06.923Z,35.00
2018-11-22T00:30:45.585Z,37.83
2018-11-22T00:33:33.281Z,34.60
2018-11-22T00:36:21.116Z,37.67
2018-11-22T00:39:09.220Z,36.80
2018-11-22T00:41:56.793Z,33.33
2018-11-22T00:44:44.487Z,36.77
2018-11-22T00:47:32.343Z,37.80
2018-11-22T00:50:20.541Z,38.83
2018-11-22T00:53:08.146Z,35.53
2018-11-22T00:55:55.713Z,36.93
2018-11-22T00:58:43.291Z,34.27
2018-11-22T01:01:30.875Z,34.17
2018-11-22T01:04:18.435Z,36.27
2018-11-22T01:07:06.006Z,32.17
2018-11-22T01:09:53.569Z,36.27
2018-11-22T01:12:41.375Z,34.37
2018-11-22T01:15:28.959Z,36.23
2018-11-22T01:18:16.545Z,36.77
2018-11-22T01:21:04.089Z,33.77
2018-11-22T01:23:51.709Z,34.63
2018-11-22T01:26:39.205Z,38.00
2018-11-22T01:29:26.778Z,36.27
2018-11-22T01:32:14.344Z,34.27
2018-11-22T01:35:01.917Z,31.13
2018-11-22T01:37:49.503Z,33.20
2018-11-22T01:40:37.082Z,35.80
2018-11-22T01:43:24.656Z,39.60
2018-11-22T01:46:12.197Z,37.80
2018-11-22T01:48:59.788Z,34.63
2018-11-22T01:51:47.370Z,34.40
2018-11-22T01:54:34.917Z,37.00
2018-11-22T01:57:22.534Z,36.10
2018-11-22T02:00:29.510Z,36.67
2018-11-22T02:03:17.102Z,37.33
2018-11-22T02:06:04.696Z,37.97
2018-11-22T02:08:52.273Z,33.33
2018-11-22T02:14:47.915Z,41.10
2018-11-22T02:17:35.468Z,36.20
2018-11-22T02:20:24.105Z,37.97
2018-11-22T02:26:18.719Z,35.73
2018-11-22T02:29:06.294Z,37.90
2018-11-22T02:31:53.887Z,39.67
2018-11-22T02:34:41.430Z,36.87
2018-11-22T02:37:29.002Z,34.17
2018-11-22T02:40:17.998Z,38.17
2018-11-22T02:46:00.257Z,37.87
2018-11-22T02:48:48.111Z,36.67
2018-11-22T02:51:35.659Z,35.73
2018-11-22T02:54:23.231Z,39.57
2018-11-22T02:57:10.829Z,35.07
2018-11-22T02:59:58.489Z,37.77
2018-11-22T03:02:46.042Z,37.53
2018-11-22T03:05:33.613Z,40.60
2018-11-22T03:08:21.166Z,37.53
2018-11-22T03:11:08.760Z,38.57
2018-11-22T03:13:56.309Z,37.27
2018-11-22T03:16:44.143Z,38.57
2018-11-22T03:19:31.689Z,37.07
2018-11-22T03:22:19.290Z,36.97
2018-11-22T03:25:07.489Z,38.93
2018-11-22T03:27:55.057Z,40.90
2018-11-22T03:30:42.886Z,40.70
2018-11-22T03:33:30.475Z,37.90
2018-11-22T03:36:18.044Z,34.43
2018-11-22T03:39:06.457Z,37.87
2018-11-22T03:41:54.359Z,37.37
2018-11-22T03:44:42.190Z,43.93
2018-11-22T03:47:29.758Z,35.53
2018-11-22T03:50:18.646Z,36.23
2018-11-22T03:53:06.234Z,41.60
2018-11-22T03:55:53.792Z,38.47
2018-11-22T03:58:41.376Z,39.27
2018-11-22T04:01:28.925Z,35.30
2018-11-22T04:04:16.513Z,37.27
2018-11-22T04:07:04.072Z,36.17
2018-11-22T04:09:51.643Z,36.90
2018-11-22T04:12:39.363Z,38.13
2018-11-22T04:15:26.985Z,35.27
2018-11-22T04:18:14.534Z,37.67
2018-11-22T04:21:02.122Z,35.67
2018-11-22T04:23:49.725Z,40.63
2018-11-22T04:26:37.298Z,38.03
2018-11-22T04:29:24.860Z,38.57
2018-11-22T04:32:12.408Z,39.77
2018-11-22T04:34:59.975Z,42.17
2018-11-22T04:37:47.553Z,36.30
2018-11-22T04:40:35.131Z,37.67
2018-11-22T04:46:30.069Z,39.20
2018-11-22T04:49:17.613Z,34.10
2018-11-22T04:52:05.284Z,36.00
2018-11-22T04:54:52.847Z,37.50
2018-11-22T04:57:40.412Z,39.97
2018-11-22T05:00:28.318Z,35.43
2018-11-22T05:03:15.866Z,37.43
2018-11-22T05:06:03.428Z,40.97
2018-11-22T05:12:00.372Z,34.40
2018-11-22T05:14:47.925Z,34.93
2018-11-22T05:17:35.500Z,32.33
2018-11-22T05:20:23.717Z,36.07
2018-11-22T05:23:11.297Z,39.33
2018-11-22T05:25:58.847Z,35.10
2018-11-22T05:28:46.414Z,32.37
2018-11-22T05:31:34.017Z,33.60
2018-11-22T05:34:21.607Z,31.80
2018-11-22T05:37:09.455Z,35.47
2018-11-22T05:39:57.004Z,38.00
2018-11-22T05:42:44.608Z,33.30
2018-11-22T05:45:32.157Z,35.63
2018-11-22T05:48:19.741Z,34.10
2018-11-22T05:51:07.298Z,66.80
2018-11-22T05:53:54.867Z,32.63
2018-11-22T05:56:42.413Z,32.73
2018-11-22T05:59:30.262Z,33.13
2018-11-22T06:02:17.813Z,29.87
2018-11-22T06:05:06.105Z,32.27
2018-11-22T06:07:53.754Z,32.10
2018-11-22T06:10:41.307Z,32.63
2018-11-22T06:13:28.870Z,34.27
2018-11-22T06:16:16.425Z,29.97
2018-11-22T06:19:04.248Z,30.80
2018-11-22T06:21:51.794Z,30.37
2018-11-22T06:24:39.409Z,30.60
2018-11-22T06:27:26.953Z,33.10
2018-11-22T06:30:34.195Z,31.67
2018-11-22T06:33:22.425Z,31.83
2018-11-22T06:36:09.982Z,31.17
2018-11-22T06:38:57.529Z,32.90
2018-11-22T06:41:45.107Z,30.67
2018-11-22T06:44:32.665Z,27.83
2018-11-22T06:47:20.238Z,29.50
2018-11-22T06:50:08.099Z,31.50
2018-11-22T06:52:55.798Z,29.57
2018-11-22T06:55:43.353Z,30.23
2018-11-22T06:58:30.934Z,28.97
2018-11-22T07:01:18.476Z,27.23
2018-11-22T07:04:06.041Z,27.90
2018-11-22T07:06:53.594Z,30.23
2018-11-22T07:09:33.935Z,28.93
2018-11-22T07:12:14.228Z,29.17
2018-11-22T07:14:54.749Z,28.00
2018-11-22T07:17:35.116Z,28.40
2018-11-22T07:20:16.946Z,25.23
2018-11-22T07:22:59.053Z,26.83
2018-11-22T07:25:39.783Z,30.00
2018-11-22T07:28:20.039Z,30.10
2018-11-22T07:31:00.457Z,28.83
2018-11-22T07:33:40.914Z,27.80
2018-11-22T07:36:21.390Z,27.47
2018-11-22T07:39:01.933Z,30.37
2018-11-22T07:41:40.665Z,27.17
2018-11-22T07:44:28.222Z,29.70
2018-11-22T07:47:15.938Z,28.30
2018-11-22T07:50:03.624Z,28.47
2018-11-22T07:52:52.361Z,30.50
2018-11-22T07:55:38.841Z,32.27
2018-11-22T07:58:26.404Z,30.63
2018-11-22T08:01:13.966Z,30.57
2018-11-22T08:04:01.521Z,30.73
2018-11-22T08:06:49.094Z,26.90
2018-11-22T08:09:36.643Z,27.03
2018-11-22T08:12:26.004Z,29.37
2018-11-22T08:15:16.402Z,27.93
2018-11-22T08:18:03.986Z,27.93
2018-11-22T08:20:51.549Z,30.27
2018-11-22T08:23:39.149Z,27.63
2018-11-22T08:26:26.858Z,31.63
2018-11-22T08:29:14.715Z,27.33
2018-11-22T08:32:02.268Z,27.43
2018-11-22T08:34:49.831Z,28.47
2018-11-22T08:37:37.988Z,30.67
2018-11-22T08:40:27.245Z,28.03
2018-11-22T08:43:14.794Z,32.20
2018-11-22T08:46:02.355Z,27.30
2018-11-22T08:48:49.931Z,28.43
2018-11-22T08:51:37.529Z,26.73
2018-11-22T08:54:25.053Z,26.60
2018-11-22T08:57:12.691Z,28.57
2018-11-22T09:00:00.246Z,29.17
2018-11-22T09:02:48.027Z,25.60
2018-11-22T09:05:36.704Z,27.80
2018-11-22T09:08:24.280Z,27.53
2018-11-22T09:11:11.828Z,33.00
2018-11-22T09:13:59.399Z,27.63
2018-11-22T09:19:53.995Z,30.10
2018-11-22T09:22:41.607Z,28.37
2018-11-22T09:25:29.254Z,29.23
2018-11-22T09:28:16.819Z,28.27
2018-11-22T09:31:04.448Z,29.13
2018-11-22T09:33:51.994Z,29.90
2018-11-22T09:36:39.859Z,23.33
2018-11-22T09:39:27.404Z,29.77
2018-11-22T09:42:15.099Z,29.87
2018-11-22T09:45:02.830Z,29.77
2018-11-22T09:47:50.406Z,29.63
2018-11-22T09:50:37.959Z,29.90
2018-11-22T09:53:25.557Z,26.67
2018-11-22T09:56:13.112Z,27.00
2018-11-22T10:01:54.301Z,31.37
2018-11-22T10:04:41.952Z,26.23
2018-11-22T10:07:29.676Z,25.87
2018-11-22T10:10:18.629Z,30.77
2018-11-22T10:13:06.331Z,26.50
2018-11-22T10:15:53.926Z,23.00
2018-11-22T10:18:41.677Z,21.60
2018-11-22T10:21:29.163Z,21.63
2018-11-22T10:24:16.806Z,19.17
2018-11-22T10:27:04.636Z,21.57
2018-11-22T10:29:52.192Z,20.10
2018-11-22T10:35:36.296Z,21.43
2018-11-22T10:38:23.876Z,21.13
2018-11-22T10:41:11.675Z,24.23
2018-11-22T10:43:59.505Z,22.20
2018-11-22T10:46:47.081Z,19.10
2018-11-22T10:49:34.872Z,20.57
2018-11-22T10:52:22.430Z,18.83
2018-11-22T10:55:30.962Z,22.30
2018-11-22T11:01:31.161Z,22.67
2018-11-22T11:04:37.906Z,17.97
2018-11-22T11:07:44.677Z,16.00
2018-11-22T11:10:32.225Z,18.33
2018-11-22T11:13:19.827Z,17.07
2018-11-22T11:16:07.439Z,15.30
2018-11-22T11:18:55.120Z,16.47
2018-11-22T11:21:42.670Z,17.87
2018-11-22T11:24:30.760Z,16.20
2018-11-22T11:27:17.956Z,16.53
2018-11-22T11:30:06.762Z,18.03
2018-11-22T11:32:54.337Z,18.67
2018-11-22T11:35:41.890Z,18.30
2018-11-22T11:38:29.507Z,17.27
2018-11-22T11:41:17.107Z,22.03
2018-11-22T11:44:04.898Z,17.57
2018-11-22T11:46:52.519Z,14.67
2018-11-22T11:49:40.096Z,19.73
2018-11-22T11:52:28.232Z,16.83
2018-11-22T11:55:16.996Z,17.30
2018-11-22T11:58:04.705Z,17.43
2018-11-22T12:00:52.561Z,17.63
2018-11-22T12:03:40.181Z,17.57
2018-11-22T12:06:27.734Z,17.33
2018-11-22T12:09:15.310Z,17.83
2018-11-22T12:12:02.870Z,18.33
2018-11-22T12:14:50.441Z,15.47
2018-11-22T12:17:38.167Z,15.63
2018-11-22T12:20:25.738Z,16.37
2018-11-22T12:23:13.295Z,15.30
2018-11-22T12:28:54.373Z,15.30
2018-11-22T12:31:41.958Z,16.40
2018-11-22T12:34:48.704Z,14.23
2018-11-22T12:37:55.468Z,14.30
2018-11-22T12:40:43.048Z,14.83
2018-11-22T12:43:30.623Z,16.43
2018-11-22T12:46:18.195Z,15.73
2018-11-22T12:51:51.860Z,19.17
2018-11-22T12:54:32.930Z,16.07
2018-11-22T12:57:13.269Z,17.60
2018-11-22T12:59:51.981Z,17.53
2018-11-22T13:02:39.705Z,18.37
2018-11-22T13:05:27.314Z,17.20
2018-11-22T13:07:55.454Z,20.23
2018-11-22T13:10:43.027Z,17.87
2018-11-22T13:13:30.595Z,19.97
2018-11-22T13:16:18.196Z,19.40
2018-11-22T13:19:05.764Z,18.27
2018-11-22T13:21:53.390Z,19.30
2018-11-22T13:24:40.940Z,18.33
2018-11-22T13:27:28.526Z,21.10
2018-11-22T13:33:10.841Z,21.53
2018-11-22T13:35:58.444Z,18.33
2018-11-22T13:38:46.260Z,19.47
2018-11-22T13:41:33.835Z,20.97
2018-11-22T13:44:21.800Z,22.23
2018-11-22T13:50:03.198Z,21.73
2018-11-22T13:52:52.347Z,21.57
2018-11-22T13:55:40.249Z,23.87
2018-11-22T13:58:27.891Z,22.83
2018-11-22T14:01:15.482Z,21.87
2018-11-22T14:04:03.141Z,21.73
2018-11-22T14:06:50.683Z,23.20
2018-11-22T14:09:20.628Z,21.03
2018-11-22T14:12:08.261Z,23.63
2018-11-22T14:14:55.882Z,23.13
2018-11-22T14:17:43.855Z,21.20
2018-11-22T14:20:32.800Z,23.07
2018-11-22T14:23:20.696Z,22.10
2018-11-22T14:26:08.262Z,22.20
2018-11-22T14:28:55.933Z,19.70
2018-11-22T14:31:43.744Z,23.43
2018-11-22T14:34:31.348Z,20.80
2018-11-22T14:37:19.206Z,21.53
2018-11-22T14:40:07.805Z,24.10
2018-11-22T14:42:55.819Z,27.47
2018-11-22T14:45:43.407Z,23.73
2018-11-22T14:48:31.085Z,22.27
2018-11-22T14:51:38.252Z,22.47
2018-11-22T14:54:25.854Z,20.23
2018-11-22T14:57:13.428Z,25.23
2018-11-22T15:00:01.124Z,21.30
2018-11-22T15:05:55.489Z,19.83
2018-11-22T15:08:43.065Z,23.30
2018-11-22T15:11:30.643Z,20.40
2018-11-22T15:14:18.215Z,21.20
2018-11-22T15:17:05.807Z,17.97
2018-11-22T15:19:53.434Z,29.07
2018-11-22T15:22:41.841Z,26.97
2018-11-22T15:25:30.127Z,25.50
2018-11-22T15:28:18.081Z,22.50
2018-11-22T15:33:59.513Z,24.27
2018-11-22T15:36:47.440Z,21.93
2018-11-22T15:39:35.027Z,21.77
2018-11-22T15:42:22.933Z,21.70
2018-11-22T15:45:12.180Z,20.23
2018-11-22T15:48:00.067Z,19.37
2018-11-22T15:50:47.725Z,23.03
2018-11-22T15:53:35.314Z,20.20
2018-11-22T15:56:23.210Z,22.33
2018-11-22T16:02:03.797Z,134.37
2018-11-22T16:04:51.404Z,180.17
2018-11-22T16:07:38.978Z,29.43
2018-11-22T16:10:45.751Z,22.10
2018-11-22T16:13:33.309Z,23.13
2018-11-22T16:16:21.300Z,25.53
2018-11-22T16:19:08.869Z,25.23
2018-11-22T16:21:56.505Z,27.93
2018-11-22T16:24:44.162Z,26.27
2018-11-22T16:27:31.810Z,25.33
2018-11-22T16:30:23.574Z,26.17
2018-11-22T16:33:11.498Z,25.60
2018-11-22T16:35:59.092Z,25.93
2018-11-22T16:38:46.949Z,24.63
2018-11-22T16:41:34.591Z,23.33
2018-11-22T16:44:22.419Z,26.97
2018-11-22T16:47:10.073Z,25.73
2018-11-22T16:49:57.761Z,26.73
2018-11-22T16:52:45.697Z,24.73
2018-11-22T16:55:33.605Z,25.73
2018-11-22T16:58:21.205Z,25.57
2018-11-22T17:01:08.777Z,25.00
2018-11-22T17:03:56.380Z,28.73
2018-11-22T17:06:43.942Z,37.67
2018-11-22T17:09:31.518Z,27.57
2018-11-22T17:12:19.080Z,47.90
2018-11-22T17:15:07.906Z,32.80
2018-11-22T17:17:56.455Z,29.10
2018-11-22T17:20:44.077Z,26.30
2018-11-22T17:23:31.665Z,26.50
2018-11-22T17:26:19.480Z,25.97
2018-11-22T17:29:07.065Z,24.83
2018-11-22T17:31:54.878Z,21.50
2018-11-22T17:34:42.458Z,27.57
2018-11-22T17:37:30.000Z,25.30
2018-11-22T17:40:11.200Z,23.47
2018-11-22T17:42:52.053Z,26.97
2018-11-22T17:45:39.711Z,23.50
2018-11-22T17:48:18.312Z,25.17
2018-11-22T17:51:05.885Z,25.33
2018-11-22T17:53:53.479Z,24.50
2018-11-22T17:56:41.350Z,25.37
2018-11-22T17:59:28.922Z,25.30
2018-11-22T18:02:16.520Z,23.00
2018-11-22T18:05:04.082Z,21.63
2018-11-22T18:07:51.684Z,20.20
2018-11-22T18:10:40.333Z,20.30
2018-11-22T18:13:27.921Z,23.80
2018-11-22T18:16:15.492Z,20.80
2018-11-22T18:19:03.055Z,20.23
2018-11-22T18:27:38.281Z,23.30
2018-11-22T18:30:30.110Z,26.23
2018-11-22T18:33:17.690Z,25.47
2018-11-22T18:36:05.316Z,25.97
2018-11-22T18:41:46.401Z,26.83
2018-11-22T18:44:34.037Z,24.57
2018-11-22T18:47:21.631Z,26.33
2018-11-22T18:53:17.468Z,26.27
2018-11-22T18:56:05.234Z,23.90
2018-11-22T18:58:52.825Z,27.77
2018-11-22T19:01:44.894Z,25.67
2018-11-22T19:04:27.993Z,24.63
2018-11-22T19:07:15.648Z,24.73
2018-11-22T19:10:03.649Z,27.63
2018-11-22T19:12:52.302Z,26.23
2018-11-22T19:15:41.396Z,24.83
2018-11-22T19:18:29.067Z,27.57
2018-11-22T19:21:16.696Z,25.27
2018-11-22T19:24:04.382Z,29.63
2018-11-22T19:26:51.939Z,27.13
2018-11-22T19:29:39.521Z,30.40
2018-11-22T19:32:27.079Z,26.40
2018-11-22T19:35:15.827Z,26.27
2018-11-22T19:38:03.419Z,27.33
2018-11-22T19:40:51.092Z,26.37
2018-11-22T19:43:38.761Z,27.37
2018-11-22T19:46:26.427Z,25.97
2018-11-22T19:49:14.087Z,26.97
2018-11-22T19:52:01.642Z,24.33
2018-11-22T19:54:49.225Z,26.47
2018-11-22T19:57:36.806Z,26.77
2018-11-22T20:00:25.209Z,27.53
2018-11-22T20:03:12.764Z,25.93
2018-11-22T20:06:00.427Z,28.23
2018-11-22T20:08:48.061Z,24.90
2018-11-22T20:11:35.662Z,22.60
2018-11-22T20:14:23.908Z,28.30
2018-11-22T20:17:11.521Z,24.10
2018-11-22T20:19:59.107Z,29.20
2018-11-22T20:22:46.715Z,31.33
2018-11-22T20:25:34.322Z,31.07
2018-11-22T20:31:29.047Z,29.13
2018-11-22T20:34:16.680Z,30.07
2018-11-22T20:37:04.546Z,29.77
2018-11-22T20:39:52.092Z,28.13
2018-11-22T20:42:40.034Z,26.20
2018-11-22T20:45:28.284Z,28.43
2018-11-22T20:48:16.028Z,27.47
2018-11-22T20:51:03.575Z,29.97
2018-11-22T20:53:51.417Z,26.43
2018-11-22T20:56:38.964Z,29.07
2018-11-22T20:59:26.553Z,30.93
2018-11-22T21:05:21.648Z,32.53
2018-11-22T21:08:09.298Z,28.03
2018-11-22T21:10:56.853Z,27.67
2018-11-22T21:13:44.442Z,28.50
2018-11-22T21:16:32.031Z,31.67
2018-11-22T21:19:20.166Z,27.53
2018-11-22T21:22:00.483Z,31.20
2018-11-22T21:24:41.249Z,28.50
2018-11-22T21:27:20.004Z,32.57
2018-11-22T21:30:46.171Z,27.43
2018-11-22T21:33:34.721Z,31.63
2018-11-22T21:36:21.395Z,28.23
2018-11-22T21:42:03.010Z,27.73
2018-11-22T21:44:50.587Z,32.20
2018-11-22T21:47:38.191Z,36.17
2018-11-22T21:50:26.978Z,30.67
2018-11-22T21:53:14.528Z,29.37
2018-11-22T21:56:02.122Z,30.47
2018-11-22T21:58:49.671Z,44.87
2018-11-22T22:01:37.253Z,28.53
2018-11-22T22:04:24.842Z,31.57
2018-11-22T22:07:12.394Z,30.43
2018-11-22T22:09:59.986Z,32.87
2018-11-22T22:12:47.534Z,29.83
2018-11-22T22:15:35.934Z,31.43
2018-11-22T22:18:23.486Z,28.67
2018-11-22T22:21:11.083Z,31.37
2018-11-22T22:23:58.640Z,31.10
2018-11-22T22:26:46.258Z,27.47
2018-11-22T22:29:33.810Z,27.03
2018-11-22T22:32:21.396Z,30.73
2018-11-22T22:38:02.587Z,28.23
2018-11-22T22:40:50.135Z,27.83
2018-11-22T22:43:37.750Z,26.10
2018-11-22T22:46:25.670Z,33.50
2018-11-22T22:49:13.228Z,28.53
2018-11-22T22:52:00.810Z,26.07
2018-11-22T22:54:48.362Z,26.90
2018-11-22T22:57:35.941Z,28.60
2018-11-22T23:00:43.073Z,27.60
2018-11-22T23:03:30.861Z,26.33
2018-11-22T23:06:18.453Z,26.10
2018-11-22T23:09:08.500Z,26.20
2018-11-22T23:14:49.900Z,26.33
2018-11-22T23:17:37.501Z,24.97
2018-11-22T23:20:26.474Z,24.23
2018-11-22T23:23:14.022Z,26.03
2018-11-22T23:28:55.301Z,28.63
2018-11-22T23:31:42.881Z,26.90
2018-11-22T23:34:30.430Z,32.00
2018-11-22T23:40:13.123Z,25.07
2018-11-22T23:43:00.709Z,28.03
2018-11-22T23:45:48.365Z,25.13
2018-11-22T23:48:35.907Z,27.07
2018-11-22T23:57:10.507Z,26.50
2018-11-22T23:59:58.095Z,24.20
